createdAt,value
2023-10-02T00:01:52.748Z,21.07
2023-10-02T00:04:20.861Z,21.73
2023-10-02T00:06:49.027Z,21.53
2023-10-02T00:09:22.123Z,19.90
2023-10-02T00:11:49.579Z,15.83
2023-10-02T00:14:24.652Z,34.23
2023-10-02T00:17:12.245Z,21.50
2023-10-02T00:19:45.328Z,21.70
2023-10-02T00:22:34.101Z,21.87
2023-10-02T00:25:02.367Z,21.10
2023-10-02T00:27:32.653Z,18.40
2023-10-02T00:30:00.756Z,21.07
2023-10-02T00:32:32.626Z,21.93
2023-10-02T00:35:01.417Z,19.47
2023-10-02T00:37:46.002Z,16.10
2023-10-02T00:40:15.026Z,19.70
2023-10-02T00:42:42.433Z,20.63
2023-10-02T00:45:09.973Z,20.27
2023-10-02T00:47:45.096Z,21.60
2023-10-02T00:50:12.685Z,18.57
2023-10-02T00:52:43.952Z,19.30
2023-10-02T00:55:13.248Z,20.53
2023-10-02T00:57:41.657Z,19.00
2023-10-02T01:00:23.191Z,18.03
2023-10-02T01:03:03.771Z,19.50
2023-10-02T01:05:49.349Z,23.50
2023-10-02T01:08:25.604Z,17.43
2023-10-02T01:10:57.963Z,25.00
2023-10-02T01:13:30.122Z,21.13
2023-10-02T01:16:00.755Z,21.60
2023-10-02T01:18:29.205Z,20.33
2023-10-02T01:20:57.675Z,20.67
2023-10-02T01:23:29.358Z,25.27
2023-10-02T01:26:03.711Z,17.37
2023-10-02T01:28:52.461Z,18.27
2023-10-02T01:31:33.046Z,20.00
2023-10-02T01:34:01.826Z,20.50
2023-10-02T01:36:32.996Z,24.73
2023-10-02T01:39:11.610Z,16.53
2023-10-02T01:41:53.943Z,21.20
2023-10-02T01:44:24.299Z,39.23
2023-10-02T01:46:54.121Z,24.70
2023-10-02T01:49:28.925Z,23.07
2023-10-02T01:52:02.915Z,19.80
2023-10-02T01:54:32.047Z,23.10
2023-10-02T01:57:01.456Z,15.67
2023-10-02T01:59:30.176Z,19.83
2023-10-02T02:02:13.705Z,18.60
2023-10-02T02:04:43.634Z,20.37
2023-10-02T02:07:11.286Z,17.77
2023-10-02T02:09:39.522Z,19.20
2023-10-02T02:12:17.719Z,20.97
2023-10-02T02:14:52.736Z,20.17
2023-10-02T02:17:25.207Z,17.17
2023-10-02T02:19:54.342Z,22.87
2023-10-02T02:22:27.259Z,19.43
2023-10-02T02:24:56.977Z,19.10
2023-10-02T02:27:24.570Z,23.97
2023-10-02T02:29:55.893Z,17.00
2023-10-02T02:32:37.986Z,20.40
2023-10-02T02:35:06.580Z,18.53
2023-10-02T02:37:35.398Z,15.80
2023-10-02T02:40:26.401Z,17.80
2023-10-02T02:42:54.680Z,17.40
2023-10-02T02:45:29.942Z,19.30
2023-10-02T02:48:05.849Z,16.63
2023-10-02T02:50:44.925Z,18.80
2023-10-02T02:53:31.662Z,20.20
2023-10-02T02:56:11.362Z,17.80
2023-10-02T02:58:39.621Z,17.47
2023-10-02T03:01:13.339Z,15.80
2023-10-02T03:03:43.867Z,20.80
2023-10-02T03:06:23.983Z,19.33
2023-10-02T03:08:55.447Z,17.73
2023-10-02T03:11:24.495Z,14.90
2023-10-02T03:13:52.394Z,19.30
2023-10-02T03:16:30.565Z,15.70
2023-10-02T03:19:04.475Z,16.57
2023-10-02T03:21:32.443Z,18.80
2023-10-02T03:24:00.529Z,16.53
2023-10-02T03:26:38.662Z,15.00
2023-10-02T03:29:13.024Z,17.37
2023-10-02T03:31:51.307Z,20.17
2023-10-02T03:34:30.245Z,16.80
2023-10-02T03:37:14.675Z,18.17
2023-10-02T03:39:54.512Z,17.30
2023-10-02T03:42:24.886Z,16.80
2023-10-02T03:44:58.355Z,20.53
2023-10-02T03:47:27.172Z,24.17
2023-10-02T03:50:02.185Z,19.50
2023-10-02T03:52:35.290Z,17.30
2023-10-02T03:55:20.289Z,20.10
2023-10-02T03:57:50.858Z,20.20
2023-10-02T04:00:19.331Z,19.80
2023-10-02T04:02:49.780Z,16.87
2023-10-02T04:05:32.021Z,16.73
2023-10-02T04:08:20.922Z,16.60
2023-10-02T04:10:59.584Z,17.50
2023-10-02T04:13:33.081Z,17.40
2023-10-02T04:16:20.124Z,21.10
2023-10-02T04:18:47.669Z,17.80
2023-10-02T04:21:15.869Z,18.80
2023-10-02T04:23:46.754Z,14.40
2023-10-02T04:26:21.679Z,16.63
2023-10-02T04:28:56.643Z,20.57
2023-10-02T04:31:24.953Z,23.20
2023-10-02T04:34:10.927Z,16.57
2023-10-02T04:36:42.262Z,17.10
2023-10-02T04:39:31.494Z,16.83
2023-10-02T04:42:20.650Z,24.00
2023-10-02T04:44:49.936Z,21.87
2023-10-02T04:47:20.309Z,21.03
2023-10-02T04:50:07.508Z,16.97
2023-10-02T04:52:57.035Z,18.60
2023-10-02T04:55:29.494Z,16.37
2023-10-02T04:58:03.585Z,23.40
2023-10-02T05:00:33.845Z,21.10
2023-10-02T05:03:11.146Z,17.90
2023-10-02T05:05:48.928Z,20.70
2023-10-02T05:08:20.757Z,19.20
2023-10-02T05:10:51.230Z,18.07
2023-10-02T05:13:38.890Z,19.37
2023-10-02T05:16:13.029Z,20.47
2023-10-02T05:18:47.674Z,20.13
2023-10-02T05:21:18.933Z,19.00
2023-10-02T05:24:01.479Z,18.53
2023-10-02T05:26:37.347Z,19.50
2023-10-02T05:29:09.481Z,17.30
2023-10-02T05:31:41.840Z,16.13
2023-10-02T05:34:23.417Z,17.50
2023-10-02T05:37:04.375Z,19.70
2023-10-02T05:39:41.281Z,19.27
2023-10-02T05:42:15.614Z,19.23
2023-10-02T05:44:44.521Z,17.17
2023-10-02T05:47:16.734Z,16.67
2023-10-02T05:49:49.565Z,15.50
2023-10-02T05:52:19.882Z,19.80
2023-10-02T05:54:50.945Z,15.90
2023-10-02T05:57:18.378Z,17.40
2023-10-02T05:59:46.747Z,21.47
2023-10-02T06:02:32.864Z,16.23
2023-10-02T06:05:09.741Z,21.37
2023-10-02T06:07:47.514Z,17.07
2023-10-02T06:10:28.263Z,18.83
2023-10-02T06:13:16.328Z,21.67
2023-10-02T06:15:49.466Z,17.40
2023-10-02T06:18:28.338Z,20.23
2023-10-02T06:21:01.543Z,60.10
2023-10-02T06:23:31.380Z,28.50
2023-10-02T06:26:00.780Z,27.53
2023-10-02T06:28:28.895Z,27.13
2023-10-02T06:30:56.539Z,24.47
2023-10-02T06:33:24.106Z,25.63
2023-10-02T06:35:58.444Z,26.07
2023-10-02T06:38:26.938Z,24.60
2023-10-02T06:40:57.524Z,21.70
2023-10-02T06:43:32.911Z,20.43
2023-10-02T06:46:10.167Z,22.07
2023-10-02T06:48:40.429Z,24.67
2023-10-02T06:51:12.139Z,25.70
2023-10-02T06:53:42.113Z,20.17
2023-10-02T06:56:12.787Z,23.57
2023-10-02T06:58:51.097Z,22.63
2023-10-02T07:01:21.758Z,19.60
2023-10-02T07:03:52.829Z,21.33
2023-10-02T07:06:20.885Z,25.60
2023-10-02T07:09:13.013Z,20.83
2023-10-02T07:11:41.544Z,19.93
2023-10-02T07:14:10.337Z,19.77
2023-10-02T07:16:38.183Z,21.00
2023-10-02T07:19:06.047Z,17.50
2023-10-02T07:21:36.529Z,17.13
2023-10-02T07:24:04.145Z,17.23
2023-10-02T07:26:50.629Z,21.20
2023-10-02T07:29:21.130Z,21.93
2023-10-02T07:31:48.770Z,17.40
2023-10-02T07:34:17.502Z,24.30
2023-10-02T07:36:47.748Z,21.13
2023-10-02T07:39:36.200Z,19.50
2023-10-02T07:42:07.074Z,19.07
2023-10-02T07:44:40.076Z,22.37
2023-10-02T07:47:19.064Z,17.50
2023-10-02T07:49:52.767Z,19.93
2023-10-02T07:52:37.013Z,21.40
2023-10-02T07:55:11.482Z,23.07
2023-10-02T07:57:39.876Z,24.00
2023-10-02T08:00:31.072Z,23.97
2023-10-02T08:03:03.567Z,24.93
2023-10-02T08:05:34.655Z,25.33
2023-10-02T08:08:11.898Z,23.90
2023-10-02T08:10:50.464Z,25.00
2023-10-02T08:13:18.493Z,24.90
2023-10-02T08:15:45.881Z,23.07
2023-10-02T08:18:20.905Z,23.43
2023-10-02T08:20:49.993Z,28.20
2023-10-02T08:23:24.343Z,28.30
2023-10-02T08:28:34.921Z,28.13
2023-10-02T08:31:03.038Z,23.30
2023-10-02T08:33:50.092Z,25.23
2023-10-02T08:36:21.806Z,28.70
2023-10-02T08:38:52.016Z,24.73
2023-10-02T08:41:20.886Z,27.27
2023-10-02T08:43:48.524Z,27.37
2023-10-02T08:46:25.983Z,25.80
2023-10-02T08:48:58.290Z,24.50
2023-10-02T08:51:34.238Z,25.50
2023-10-02T08:54:06.449Z,25.00
2023-10-02T08:56:49.502Z,26.03
2023-10-02T08:59:27.912Z,24.87
2023-10-02T09:02:19.924Z,24.73
2023-10-02T09:04:53.206Z,30.33
2023-10-02T09:07:47.942Z,23.20
2023-10-02T09:10:27.436Z,27.50
2023-10-02T09:13:25.682Z,25.30
2023-10-02T09:15:54.687Z,23.37
2023-10-02T09:18:35.108Z,24.07
2023-10-02T09:21:15.385Z,23.03
2023-10-02T09:23:52.285Z,29.53
2023-10-02T09:26:24.565Z,22.50
2023-10-02T09:29:03.498Z,22.33
2023-10-02T09:31:32.414Z,23.23
2023-10-02T09:34:38.419Z,20.60
2023-10-02T09:37:29.312Z,22.47
2023-10-02T09:40:04.552Z,20.43
2023-10-02T09:42:34.825Z,21.40
2023-10-02T09:45:09.598Z,20.50
2023-10-02T09:47:44.839Z,17.37
2023-10-02T09:50:28.336Z,19.00
2023-10-02T09:53:00.940Z,19.00
2023-10-02T09:55:48.728Z,20.13
2023-10-02T09:58:29.524Z,19.80
2023-10-02T10:01:27.263Z,18.97
2023-10-02T10:03:56.293Z,19.20
2023-10-02T10:06:42.824Z,23.40
2023-10-02T10:09:16.693Z,20.90
2023-10-02T10:11:44.095Z,18.00
2023-10-02T10:14:40.087Z,18.60
2023-10-02T10:17:50.596Z,17.43
2023-10-02T10:20:21.180Z,16.17
2023-10-02T10:22:58.199Z,23.93
2023-10-02T10:25:33.970Z,19.07
2023-10-02T10:28:09.675Z,19.03
2023-10-02T10:30:41.130Z,16.50
2023-10-02T10:33:09.982Z,19.33
2023-10-02T10:35:49.765Z,22.27
2023-10-02T10:38:23.330Z,20.93
2023-10-02T10:41:01.631Z,18.37
2023-10-02T10:43:51.380Z,16.10
2023-10-02T10:46:18.822Z,18.33
2023-10-02T10:48:49.315Z,15.40
2023-10-02T10:51:23.400Z,14.80
2023-10-02T10:53:55.491Z,16.60
2023-10-02T10:56:24.882Z,14.13
2023-10-02T10:59:14.513Z,13.40
2023-10-02T11:02:10.044Z,13.90
2023-10-02T11:04:56.003Z,15.73
2023-10-02T11:07:30.766Z,15.97
2023-10-02T11:10:20.174Z,13.73
2023-10-02T11:12:57.316Z,17.40
2023-10-02T11:15:44.945Z,15.57
2023-10-02T11:18:21.553Z,17.60
2023-10-02T11:20:55.461Z,17.03
2023-10-02T11:23:39.332Z,15.50
2023-10-02T11:26:14.459Z,14.83
2023-10-02T11:28:43.158Z,16.30
2023-10-02T11:31:33.800Z,11.83
2023-10-02T11:36:53.716Z,16.00
2023-10-02T11:39:21.397Z,16.70
2023-10-02T11:41:48.886Z,19.73
2023-10-02T11:44:16.663Z,16.27
2023-10-02T11:46:47.308Z,15.33
2023-10-02T11:49:14.538Z,17.33
2023-10-02T11:51:43.554Z,14.20
2023-10-02T11:54:12.383Z,14.67
2023-10-02T11:56:39.645Z,14.70
2023-10-02T11:59:08.473Z,17.10
2023-10-02T12:01:36.464Z,14.77
2023-10-02T12:04:06.068Z,12.67
2023-10-02T12:06:33.669Z,15.93
2023-10-02T12:09:02.261Z,16.53
2023-10-02T12:11:29.858Z,14.37
2023-10-02T12:13:57.777Z,14.53
2023-10-02T12:16:25.435Z,14.17
2023-10-02T12:18:53.057Z,16.60
2023-10-02T12:21:22.317Z,15.10
2023-10-02T12:23:51.528Z,14.60
2023-10-02T12:26:20.690Z,17.10
2023-10-02T12:28:48.121Z,15.47
2023-10-02T12:31:16.289Z,16.43
2023-10-02T12:33:43.716Z,13.33
2023-10-02T12:36:21.142Z,14.53
2023-10-02T12:38:49.515Z,14.27
2023-10-02T12:41:18.110Z,14.00
2023-10-02T12:43:46.553Z,14.13
2023-10-02T12:46:17.328Z,16.10
2023-10-02T12:48:47.434Z,14.90
2023-10-02T12:51:15.136Z,17.33
2023-10-02T12:53:43.710Z,15.00
2023-10-02T12:56:16.595Z,12.00
2023-10-02T12:58:43.927Z,13.70
2023-10-02T13:01:14.478Z,16.60
2023-10-02T13:03:44.904Z,14.60
2023-10-02T13:06:13.459Z,12.90
2023-10-02T13:08:41.584Z,14.83
2023-10-02T13:11:11.434Z,15.80
2023-10-02T13:13:38.726Z,16.77
2023-10-02T13:16:06.071Z,15.03
2023-10-02T13:18:34.976Z,16.73
2023-10-02T13:21:02.818Z,15.07
2023-10-02T13:23:30.143Z,14.30
2023-10-02T13:25:57.560Z,14.63
2023-10-02T13:28:25.467Z,17.07
2023-10-02T13:30:53.945Z,14.73
2023-10-02T13:33:22.123Z,16.97
2023-10-02T13:35:58.697Z,16.07
2023-10-02T13:38:28.502Z,16.87
2023-10-02T13:40:57.925Z,14.50
2023-10-02T13:43:26.222Z,15.43
2023-10-02T13:45:54.917Z,15.50
2023-10-02T13:48:22.581Z,15.63
2023-10-02T13:51:02.812Z,14.37
2023-10-02T13:53:32.618Z,17.87
2023-10-02T13:56:04.837Z,20.40
2023-10-02T13:58:36.630Z,18.33
2023-10-02T14:01:06.371Z,19.67
2023-10-02T14:03:33.968Z,15.67
2023-10-02T14:06:05.089Z,20.17
2023-10-02T14:08:32.476Z,16.90
2023-10-02T14:10:59.848Z,16.53
2023-10-02T14:13:27.080Z,18.63
2023-10-02T14:15:54.886Z,16.80
2023-10-02T14:18:25.775Z,16.37
2023-10-02T14:21:01.002Z,18.57
2023-10-02T14:23:32.831Z,20.10
2023-10-02T14:26:03.398Z,16.70
2023-10-02T14:28:30.782Z,16.27
2023-10-02T14:30:58.303Z,18.37
2023-10-02T14:33:27.378Z,18.03
2023-10-02T14:35:55.664Z,21.47
2023-10-02T14:38:24.106Z,20.90
2023-10-02T14:40:51.911Z,21.00
2023-10-02T14:43:19.621Z,21.47
2023-10-02T14:45:47.510Z,21.90
2023-10-02T14:48:36.648Z,21.27
2023-10-02T14:51:08.801Z,21.37
2023-10-02T14:53:36.104Z,22.90
2023-10-02T14:56:06.907Z,20.27
2023-10-02T14:58:34.754Z,22.03
2023-10-02T15:01:13.840Z,22.90
2023-10-02T15:03:42.099Z,22.83
2023-10-02T15:06:12.158Z,19.73
2023-10-02T15:08:42.356Z,21.20
2023-10-02T15:11:16.161Z,20.17
2023-10-02T15:13:44.401Z,21.97
2023-10-02T15:16:16.426Z,22.40
2023-10-02T15:18:48.774Z,21.23
2023-10-02T15:21:20.100Z,21.87
2023-10-02T15:23:47.977Z,20.33
2023-10-02T15:26:16.567Z,19.83
2023-10-02T15:28:44.175Z,20.73
2023-10-02T15:31:15.261Z,22.13
2023-10-02T15:33:43.846Z,21.80
2023-10-02T15:36:16.766Z,20.20
2023-10-02T15:38:46.572Z,18.47
2023-10-02T15:41:27.815Z,23.03
2023-10-02T15:43:55.152Z,20.70
2023-10-02T15:46:23.699Z,17.90
2023-10-02T15:48:51.311Z,23.67
2023-10-02T15:51:22.576Z,24.80
2023-10-02T15:53:51.480Z,25.20
2023-10-02T15:56:25.329Z,21.70
2023-10-02T15:58:55.290Z,24.10
2023-10-02T16:01:23.454Z,28.17
2023-10-02T16:03:51.670Z,26.73
2023-10-02T16:06:21.544Z,24.90
2023-10-02T16:08:49.762Z,29.43
2023-10-02T16:11:21.850Z,26.37
2023-10-02T16:13:49.495Z,27.67
2023-10-02T16:16:18.862Z,23.30
2023-10-02T16:18:48.411Z,24.33
2023-10-02T16:21:22.130Z,26.17
2023-10-02T16:23:50.934Z,22.90
2023-10-02T16:26:19.380Z,25.27
2023-10-02T16:28:47.727Z,34.13
2023-10-02T16:31:19.409Z,31.00
2023-10-02T16:33:50.171Z,28.53
2023-10-02T16:36:20.390Z,23.27
2023-10-02T16:39:03.402Z,27.90
2023-10-02T16:41:33.552Z,30.30
2023-10-02T16:44:05.199Z,28.77
2023-10-02T16:46:33.169Z,25.20
2023-10-02T16:49:02.199Z,29.57
2023-10-02T16:51:29.945Z,27.63
2023-10-02T16:53:57.184Z,26.30
2023-10-02T16:56:24.550Z,24.60
2023-10-02T16:58:52.589Z,31.70
2023-10-02T17:01:22.555Z,32.20
2023-10-02T17:03:51.332Z,27.40
2023-10-02T17:06:21.360Z,31.77
2023-10-02T17:08:49.422Z,32.77
2023-10-02T17:11:21.525Z,34.30
2023-10-02T17:13:48.874Z,38.23
2023-10-02T17:16:16.560Z,26.60
2023-10-02T17:18:44.128Z,31.30
2023-10-02T17:21:14.570Z,29.30
2023-10-02T17:23:48.422Z,32.20
2023-10-02T17:26:17.959Z,31.40
2023-10-02T17:28:45.211Z,34.20
2023-10-02T17:31:12.547Z,32.60
2023-10-02T17:33:43.202Z,39.87
2023-10-02T17:36:10.584Z,34.33
2023-10-02T17:38:37.899Z,28.63
2023-10-02T17:41:05.254Z,32.00
2023-10-02T17:43:32.486Z,42.93
2023-10-02T17:46:00.239Z,37.60
2023-10-02T17:48:27.590Z,32.70
2023-10-02T17:50:54.895Z,30.43
2023-10-02T17:53:23.475Z,31.73
2023-10-02T17:55:51.805Z,32.67
2023-10-02T17:58:19.344Z,33.60
2023-10-02T18:00:48.889Z,31.67
2023-10-02T18:03:17.625Z,37.13
2023-10-02T18:05:45.133Z,33.13
2023-10-02T18:08:14.138Z,29.23
2023-10-02T18:10:41.864Z,34.00
2023-10-02T18:13:11.292Z,32.63
2023-10-02T18:15:38.540Z,34.50
2023-10-02T18:18:06.522Z,31.73
2023-10-02T18:20:39.862Z,30.80
2023-10-02T18:23:07.177Z,33.30
2023-10-02T18:25:34.410Z,34.43
2023-10-02T18:28:04.566Z,30.30
2023-10-02T18:30:33.362Z,31.83
2023-10-02T18:33:04.655Z,33.90
2023-10-02T18:35:35.493Z,42.57
2023-10-02T18:38:03.468Z,36.50
2023-10-02T18:40:31.207Z,38.47
2023-10-02T18:42:58.470Z,32.63
2023-10-02T18:45:26.571Z,36.53
2023-10-02T18:47:54.032Z,32.03
2023-10-02T18:50:21.570Z,36.23
2023-10-02T18:52:48.990Z,36.37
2023-10-02T18:55:17.636Z,38.03
2023-10-02T18:57:44.849Z,34.27
2023-10-02T19:00:13.921Z,45.53
2023-10-02T19:02:41.752Z,31.10
2023-10-02T19:05:09.691Z,33.43
2023-10-02T19:07:37.329Z,43.07
2023-10-02T19:10:04.869Z,37.50
2023-10-02T19:12:32.334Z,46.73
2023-10-02T19:14:59.748Z,45.33
2023-10-02T19:17:28.280Z,35.50
2023-10-02T19:19:55.663Z,37.93
2023-10-02T19:22:22.849Z,33.40
2023-10-02T19:24:50.058Z,32.23
2023-10-02T19:27:17.942Z,37.43
2023-10-02T19:29:46.291Z,38.03
2023-10-02T19:32:14.108Z,32.00
2023-10-02T19:34:41.384Z,35.93
2023-10-02T19:37:08.628Z,39.77
2023-10-02T19:39:35.810Z,40.67
2023-10-02T19:42:04.641Z,38.07
2023-10-02T19:44:32.135Z,36.20
2023-10-02T19:47:00.634Z,37.97
2023-10-02T19:49:28.700Z,39.30
2023-10-02T19:51:57.484Z,37.73
2023-10-02T19:54:27.885Z,33.73
2023-10-02T19:56:55.097Z,44.70
2023-10-02T19:59:22.514Z,44.60
2023-10-02T20:01:50.086Z,40.80
2023-10-02T20:04:17.441Z,42.20
2023-10-02T20:06:44.699Z,45.00
2023-10-02T20:09:12.690Z,44.47
2023-10-02T20:11:40.568Z,39.73
2023-10-02T20:14:07.945Z,41.17
2023-10-02T20:16:41.953Z,44.63
2023-10-02T20:19:09.507Z,42.17
2023-10-02T20:21:38.505Z,42.67
2023-10-02T20:24:07.079Z,40.43
2023-10-02T20:26:34.436Z,40.37
2023-10-02T20:29:02.934Z,36.00
2023-10-02T20:31:32.760Z,35.83
2023-10-02T20:34:00.507Z,41.63
2023-10-02T20:36:27.679Z,35.20
2023-10-02T20:38:54.849Z,36.83
2023-10-02T20:41:22.719Z,39.70
2023-10-02T20:43:49.973Z,37.10
2023-10-02T20:46:17.306Z,39.43
2023-10-02T20:48:44.708Z,35.60
2023-10-02T20:51:13.524Z,38.20
2023-10-02T20:53:40.814Z,40.70
2023-10-02T20:56:08.716Z,36.87
2023-10-02T20:58:36.819Z,34.20
2023-10-02T21:01:10.627Z,32.70
2023-10-02T21:03:37.853Z,34.57
2023-10-02T21:06:09.217Z,35.60
2023-10-02T21:08:36.484Z,39.90
2023-10-02T21:11:04.713Z,39.20
2023-10-02T21:13:32.660Z,41.27
2023-10-02T21:15:59.897Z,38.50
2023-10-02T21:18:31.374Z,38.40
2023-10-02T21:20:58.729Z,38.57
2023-10-02T21:23:26.066Z,34.10
2023-10-02T21:25:54.283Z,35.10
2023-10-02T21:28:21.548Z,35.57
2023-10-02T21:30:50.574Z,30.43
2023-10-02T21:33:18.960Z,36.70
2023-10-02T21:35:46.356Z,35.97
2023-10-02T21:38:14.853Z,30.17
2023-10-02T21:40:42.043Z,33.20
2023-10-02T21:43:09.217Z,34.63
2023-10-02T21:45:36.498Z,31.13
2023-10-02T21:48:04.948Z,34.43
2023-10-02T21:50:32.848Z,35.03
2023-10-02T21:53:01.103Z,32.53
2023-10-02T21:55:29.008Z,31.93
2023-10-02T21:57:56.258Z,30.53
2023-10-02T22:00:42.249Z,29.50
2023-10-02T22:03:09.661Z,29.77
2023-10-02T22:05:37.008Z,27.97
2023-10-02T22:08:04.359Z,30.70
2023-10-02T22:10:32.603Z,33.93
2023-10-02T22:12:59.868Z,25.40
2023-10-02T22:15:30.117Z,28.43
2023-10-02T22:17:57.500Z,30.23
2023-10-02T22:20:25.253Z,36.23
2023-10-02T22:22:52.717Z,29.10
2023-10-02T22:25:19.924Z,34.80
2023-10-02T22:27:47.108Z,31.50
2023-10-02T22:30:16.092Z,33.43
2023-10-02T22:32:43.966Z,34.33
2023-10-02T22:35:12.115Z,34.30
2023-10-02T22:37:40.277Z,38.37
2023-10-02T22:40:10.755Z,31.30
2023-10-02T22:42:38.046Z,30.37
2023-10-02T22:45:05.464Z,31.73
2023-10-02T22:47:32.821Z,39.60
2023-10-02T22:50:04.194Z,52.50
2023-10-02T22:52:31.542Z,43.50
2023-10-02T22:55:02.375Z,64.07
2023-10-02T22:57:29.616Z,57.23
2023-10-02T22:59:58.057Z,67.90
2023-10-02T23:02:25.707Z,61.23
2023-10-02T23:04:53.415Z,65.67
2023-10-02T23:07:21.815Z,61.50
2023-10-02T23:09:49.264Z,66.33
2023-10-02T23:12:17.062Z,52.70
2023-10-02T23:14:44.446Z,45.80
2023-10-02T23:17:12.094Z,46.70
2023-10-02T23:19:41.735Z,42.03
2023-10-02T23:22:09.235Z,42.93
2023-10-02T23:24:37.991Z,43.10
2023-10-02T23:27:05.351Z,41.13
2023-10-02T23:29:32.800Z,44.00
2023-10-02T23:32:02.518Z,44.03
2023-10-02T23:34:30.086Z,40.90
2023-10-02T23:36:58.502Z,32.57
2023-10-02T23:39:28.028Z,40.73
2023-10-02T23:41:56.048Z,33.00
2023-10-02T23:44:25.381Z,38.93
2023-10-02T23:46:52.934Z,33.17
2023-10-02T23:49:27.402Z,32.60
2023-10-02T23:51:55.186Z,32.20
2023-10-02T23:54:23.938Z,28.17
2023-10-02T23:56:52.929Z,30.10
2023-10-02T23:59:21.796Z,33.60
